createdAt,value
2023-02-02T00:02:32.458Z,7.70
2023-02-02T00:05:23.298Z,5.80
2023-02-02T00:08:14.252Z,10.50
2023-02-02T00:11:04.425Z,9.10
2023-02-02T00:13:55.559Z,10.20
2023-02-02T00:16:47.784Z,8.60
2023-02-02T00:19:38.598Z,8.00
2023-02-02T00:22:29.440Z,8.30
2023-02-02T00:25:20.163Z,8.20
2023-02-02T00:28:12.355Z,7.30
2023-02-02T00:31:02.920Z,8.40
2023-02-02T00:33:54.601Z,7.70
2023-02-02T00:36:45.879Z,8.00
2023-02-02T00:39:36.316Z,5.70
2023-02-02T00:42:27.495Z,12.00
2023-02-02T00:45:18.787Z,7.60
2023-02-02T00:48:11.490Z,6.90
2023-02-02T00:51:02.692Z,6.50
2023-02-02T00:53:53.090Z,5.80
2023-02-02T00:56:44.342Z,7.70
2023-02-02T00:59:35.740Z,6.20
2023-02-02T01:02:26.592Z,6.10
2023-02-02T01:05:17.743Z,6.50
2023-02-02T01:08:09.050Z,7.90
2023-02-02T01:11:02.126Z,7.70
2023-02-02T01:13:53.147Z,6.30
2023-02-02T01:16:44.852Z,6.10
2023-02-02T01:19:36.071Z,8.60
2023-02-02T01:22:27.760Z,7.10
2023-02-02T01:25:18.663Z,6.40
2023-02-02T01:28:09.165Z,5.60
2023-02-02T01:31:02.391Z,8.70
2023-02-02T01:33:53.571Z,4.90
2023-02-02T01:36:44.270Z,6.60
2023-02-02T01:39:35.166Z,5.90
2023-02-02T01:42:27.584Z,5.60
2023-02-02T01:45:27.402Z,6.20
2023-02-02T01:48:20.514Z,7.10
2023-02-02T01:51:15.784Z,6.20
2023-02-02T01:54:11.622Z,5.10
2023-02-02T01:57:05.833Z,6.10
2023-02-02T01:59:58.754Z,6.40
2023-02-02T02:02:51.400Z,6.00
2023-02-02T02:05:46.675Z,4.60
2023-02-02T02:08:43.582Z,7.60
2023-02-02T02:11:35.210Z,7.10
2023-02-02T02:14:44.013Z,9.10
2023-02-02T02:17:51.287Z,8.40
2023-02-02T02:21:24.494Z,5.70
2023-02-02T02:25:00.284Z,6.30
2023-02-02T02:28:18.800Z,6.80
2023-02-02T02:31:33.676Z,8.20
2023-02-02T02:34:30.619Z,6.30
2023-02-02T02:37:32.099Z,6.50
2023-02-02T02:40:29.526Z,7.90
2023-02-02T02:43:24.802Z,5.10
2023-02-02T02:46:17.400Z,6.10
2023-02-02T02:49:12.774Z,7.00
2023-02-02T02:52:06.277Z,7.10
2023-02-02T02:55:01.987Z,7.60
2023-02-02T02:58:06.350Z,6.30
2023-02-02T03:01:07.386Z,8.50
2023-02-02T03:04:07.682Z,6.10
2023-02-02T03:07:04.635Z,7.00
2023-02-02T03:09:58.181Z,6.40
2023-02-02T03:12:51.886Z,5.70
2023-02-02T03:15:44.353Z,5.20
2023-02-02T03:18:36.333Z,7.20
2023-02-02T03:21:26.658Z,5.50
2023-02-02T03:24:18.209Z,7.10
2023-02-02T03:27:09.367Z,6.20
2023-02-02T03:30:01.466Z,6.10
2023-02-02T03:32:53.841Z,5.80
2023-02-02T03:35:44.486Z,6.80
2023-02-02T03:38:35.106Z,5.40
2023-02-02T03:41:26.588Z,5.40
2023-02-02T03:44:17.829Z,7.80
2023-02-02T03:47:08.474Z,6.60
2023-02-02T03:49:58.871Z,6.00
2023-02-02T03:52:49.539Z,6.80
2023-02-02T03:55:42.011Z,5.90
2023-02-02T03:58:33.489Z,7.90
2023-02-02T04:01:30.372Z,6.20
2023-02-02T04:04:21.179Z,6.00
2023-02-02T04:07:11.703Z,7.20
2023-02-02T04:10:02.492Z,7.30
2023-02-02T04:12:52.673Z,5.70
2023-02-02T04:15:44.064Z,6.70
2023-02-02T04:18:34.460Z,5.10
2023-02-02T04:21:25.297Z,7.10
2023-02-02T04:24:17.315Z,7.80
2023-02-02T04:27:08.093Z,6.50
2023-02-02T04:29:58.632Z,5.30
2023-02-02T04:32:52.418Z,6.80
2023-02-02T04:35:43.696Z,4.90
2023-02-02T04:38:35.144Z,6.30
2023-02-02T04:41:26.440Z,7.50
2023-02-02T04:44:18.773Z,7.90
2023-02-02T04:47:10.096Z,6.40
2023-02-02T04:50:00.956Z,6.30
2023-02-02T04:52:51.746Z,6.50
2023-02-02T04:55:42.134Z,6.80
2023-02-02T04:58:32.860Z,8.40
2023-02-02T05:01:23.945Z,6.10
2023-02-02T05:04:15.553Z,6.20
2023-02-02T05:07:06.544Z,7.00
2023-02-02T05:09:57.475Z,5.70
2023-02-02T05:12:48.235Z,6.10
2023-02-02T05:15:38.902Z,5.40
2023-02-02T05:18:31.726Z,6.40
2023-02-02T05:21:22.541Z,7.10
2023-02-02T05:24:14.331Z,5.80
2023-02-02T05:27:05.753Z,4.80
2023-02-02T05:29:56.050Z,5.70
2023-02-02T05:32:46.650Z,6.90
2023-02-02T05:35:37.387Z,6.40
2023-02-02T05:38:28.225Z,6.60
2023-02-02T05:41:19.472Z,5.20
2023-02-02T05:44:10.711Z,7.30
2023-02-02T05:47:02.407Z,7.20
2023-02-02T05:49:53.257Z,5.30
2023-02-02T05:52:46.424Z,8.70
2023-02-02T05:55:37.162Z,6.50
2023-02-02T05:58:28.645Z,4.80
2023-02-02T06:01:19.955Z,4.50
2023-02-02T06:04:10.779Z,7.00
2023-02-02T06:07:01.210Z,6.30
2023-02-02T06:09:51.090Z,6.90
2023-02-02T06:12:41.172Z,7.80
2023-02-02T06:15:33.248Z,5.80
2023-02-02T06:18:23.907Z,7.50
2023-02-02T06:21:14.926Z,6.50
2023-02-02T06:24:05.579Z,7.50
2023-02-02T06:26:56.076Z,6.60
2023-02-02T06:29:46.800Z,6.60
2023-02-02T06:32:37.193Z,6.30
2023-02-02T06:35:27.819Z,8.90
2023-02-02T06:38:19.176Z,13.10
2023-02-02T06:41:09.789Z,14.00
2023-02-02T06:44:00.324Z,16.80
2023-02-02T06:46:50.316Z,16.10
2023-02-02T06:49:40.403Z,11.50
2023-02-02T06:52:31.727Z,13.70
2023-02-02T06:55:22.806Z,12.30
2023-02-02T06:58:14.573Z,14.20
2023-02-02T07:01:10.696Z,9.50
2023-02-02T07:04:00.991Z,11.70
2023-02-02T07:06:52.076Z,11.00
2023-02-02T07:09:42.148Z,10.20
2023-02-02T07:12:32.987Z,7.90
2023-02-02T07:15:23.957Z,6.40
2023-02-02T07:18:15.112Z,7.70
2023-02-02T07:21:06.585Z,8.70
2023-02-02T07:23:56.869Z,7.40
2023-02-02T07:26:47.316Z,8.00
2023-02-02T07:29:38.079Z,12.10
2023-02-02T07:32:28.195Z,9.20
2023-02-02T07:35:19.449Z,12.70
2023-02-02T07:38:09.532Z,10.60
2023-02-02T07:41:03.928Z,9.40
2023-02-02T07:43:54.217Z,8.90
2023-02-02T07:46:45.349Z,10.00
2023-02-02T07:49:35.679Z,9.40
2023-02-02T07:52:26.003Z,6.80
2023-02-02T07:55:16.414Z,9.30
2023-02-02T07:58:07.900Z,6.80
2023-02-02T08:01:01.420Z,8.40
2023-02-02T08:03:53.199Z,8.30
2023-02-02T08:06:43.330Z,8.40
2023-02-02T08:09:33.590Z,9.60
2023-02-02T08:12:25.345Z,9.10
2023-02-02T08:15:16.888Z,9.90
2023-02-02T08:18:07.840Z,10.80
2023-02-02T08:21:01.665Z,8.60
2023-02-02T08:23:53.172Z,11.60
2023-02-02T08:26:43.413Z,10.00
2023-02-02T08:29:34.033Z,8.60
2023-02-02T08:32:24.609Z,11.30
2023-02-02T08:35:14.548Z,10.10
2023-02-02T08:38:05.552Z,11.40
2023-02-02T08:40:57.611Z,11.70
2023-02-02T08:43:48.052Z,10.00
2023-02-02T08:46:38.327Z,9.50
2023-02-02T08:49:29.241Z,8.90
2023-02-02T08:52:20.017Z,9.60
2023-02-02T08:55:11.069Z,11.80
2023-02-02T08:58:01.023Z,9.30
2023-02-02T09:00:51.336Z,10.90
2023-02-02T09:03:42.115Z,11.40
2023-02-02T09:06:34.510Z,10.40
2023-02-02T09:09:24.740Z,10.60
2023-02-02T09:12:15.319Z,7.80
2023-02-02T09:15:05.618Z,12.80
2023-02-02T09:17:56.641Z,11.80
2023-02-02T09:20:47.170Z,12.20
2023-02-02T09:23:38.922Z,9.00
2023-02-02T09:26:30.627Z,9.10
2023-02-02T09:29:21.419Z,8.90
2023-02-02T09:32:11.772Z,11.50
2023-02-02T09:35:02.669Z,10.20
2023-02-02T09:37:53.190Z,9.40
2023-02-02T09:40:43.994Z,11.40
2023-02-02T09:43:50.182Z,11.00
2023-02-02T09:46:54.263Z,9.80
2023-02-02T09:49:53.469Z,10.00
2023-02-02T09:52:45.996Z,10.80
2023-02-02T09:55:39.255Z,11.10
2023-02-02T09:58:33.520Z,11.90
2023-02-02T10:01:27.175Z,9.20
2023-02-02T10:04:21.756Z,9.60
2023-02-02T10:07:19.073Z,10.70
2023-02-02T10:10:19.184Z,10.10
2023-02-02T10:13:17.151Z,15.60
2023-02-02T10:16:14.632Z,18.90
2023-02-02T10:19:11.173Z,20.10
2023-02-02T10:22:06.936Z,16.90
2023-02-02T10:24:58.925Z,10.90
2023-02-02T10:27:59.762Z,9.50
2023-02-02T10:30:57.048Z,12.00
2023-02-02T10:34:02.583Z,11.80
2023-02-02T10:37:11.761Z,13.30
2023-02-02T10:40:15.034Z,16.80
2023-02-02T10:43:40.933Z,16.20
2023-02-02T10:46:36.002Z,14.80
2023-02-02T10:49:34.831Z,10.00
2023-02-02T10:52:32.788Z,10.40
2023-02-02T10:55:32.517Z,10.00
2023-02-02T10:58:30.370Z,11.30
2023-02-02T11:01:23.058Z,11.80
2023-02-02T11:04:31.435Z,13.30
2023-02-02T11:07:22.141Z,11.20
2023-02-02T11:10:13.397Z,12.20
2023-02-02T11:13:04.238Z,11.70
2023-02-02T11:16:14.318Z,12.60
2023-02-02T11:19:23.368Z,11.60
2023-02-02T11:22:29.221Z,11.40
2023-02-02T11:25:32.387Z,10.20
2023-02-02T11:28:30.543Z,9.30
2023-02-02T11:31:36.365Z,8.20
2023-02-02T11:34:28.840Z,9.20
2023-02-02T11:37:25.246Z,10.30
2023-02-02T11:40:31.500Z,8.30
2023-02-02T11:43:28.742Z,10.50
2023-02-02T11:46:24.731Z,9.60
2023-02-02T11:49:21.542Z,8.00
2023-02-02T11:52:20.706Z,10.60
2023-02-02T11:55:19.846Z,8.10
2023-02-02T11:58:27.906Z,9.90
2023-02-02T12:01:28.314Z,9.80
2023-02-02T12:04:27.940Z,10.60
2023-02-02T12:07:28.704Z,8.80
2023-02-02T12:10:21.985Z,10.20
2023-02-02T12:13:20.802Z,8.70
2023-02-02T12:16:24.881Z,11.10
2023-02-02T12:19:32.988Z,8.80
2023-02-02T12:22:33.829Z,8.80
2023-02-02T12:25:46.788Z,9.00
2023-02-02T12:28:58.339Z,11.00
2023-02-02T12:32:01.673Z,8.00
2023-02-02T12:35:03.583Z,8.80
2023-02-02T12:38:03.675Z,10.00
2023-02-02T12:41:20.188Z,10.60
2023-02-02T12:44:22.686Z,11.00
2023-02-02T12:47:20.408Z,9.80
2023-02-02T12:50:26.575Z,9.40
2023-02-02T12:53:34.456Z,12.20
2023-02-02T12:56:33.673Z,8.60
2023-02-02T12:59:42.496Z,8.40
2023-02-02T13:02:40.180Z,9.10
2023-02-02T13:05:47.327Z,11.10
2023-02-02T13:08:47.011Z,8.70
2023-02-02T13:11:42.526Z,9.60
2023-02-02T13:14:36.918Z,6.80
2023-02-02T13:17:31.387Z,8.00
2023-02-02T13:20:29.937Z,11.90
2023-02-02T13:23:26.593Z,9.40
2023-02-02T13:26:20.745Z,8.50
2023-02-02T13:29:18.673Z,9.70
2023-02-02T13:32:18.371Z,10.80
2023-02-02T13:35:18.427Z,10.30
2023-02-02T13:38:17.709Z,10.40
2023-02-02T13:41:12.687Z,9.60
2023-02-02T13:44:07.018Z,9.60
2023-02-02T13:47:02.222Z,10.30
2023-02-02T13:49:55.765Z,9.80
2023-02-02T13:53:02.774Z,12.30
2023-02-02T13:56:10.845Z,10.90
2023-02-02T13:59:14.926Z,11.90
2023-02-02T14:02:08.627Z,11.70
2023-02-02T14:05:01.259Z,10.10
2023-02-02T14:07:56.447Z,8.60
2023-02-02T14:10:58.713Z,11.40
2023-02-02T14:14:08.853Z,8.90
2023-02-02T14:16:59.703Z,12.80
2023-02-02T14:19:55.746Z,11.00
2023-02-02T14:22:48.822Z,10.90
2023-02-02T14:26:05.682Z,9.40
2023-02-02T14:28:56.016Z,13.80
2023-02-02T14:31:55.378Z,7.70
2023-02-02T14:34:46.516Z,12.40
2023-02-02T14:37:49.457Z,11.50
2023-02-02T14:40:50.902Z,10.10
2023-02-02T14:43:50.046Z,10.70
2023-02-02T14:46:49.373Z,11.40
2023-02-02T14:49:40.111Z,13.80
2023-02-02T14:52:30.069Z,11.00
2023-02-02T14:55:26.392Z,13.60
2023-02-02T14:58:26.748Z,10.20
2023-02-02T15:01:27.902Z,7.60
2023-02-02T15:04:29.965Z,8.00
2023-02-02T15:07:53.786Z,9.80
2023-02-02T15:11:27.504Z,6.90
2023-02-02T15:14:21.209Z,8.80
2023-02-02T15:17:24.433Z,12.10
2023-02-02T15:20:22.367Z,11.00
2023-02-02T15:23:26.104Z,9.50
2023-02-02T15:26:24.873Z,6.70
2023-02-02T15:29:23.700Z,7.00
2023-02-02T15:32:20.728Z,8.90
2023-02-02T15:35:19.750Z,8.50
2023-02-02T15:38:17.906Z,8.90
2023-02-02T15:41:18.345Z,8.20
2023-02-02T15:44:22.964Z,9.80
2023-02-02T15:47:17.465Z,8.00
2023-02-02T15:50:20.813Z,9.50
2023-02-02T15:53:22.921Z,10.20
2023-02-02T15:56:29.522Z,7.50
2023-02-02T15:59:24.378Z,8.80
2023-02-02T16:02:24.779Z,9.10
2023-02-02T16:05:40.420Z,9.30
2023-02-02T16:08:34.479Z,8.10
2023-02-02T16:11:25.831Z,6.80
2023-02-02T16:14:19.217Z,10.80
2023-02-02T16:17:20.816Z,10.80
2023-02-02T16:20:17.865Z,12.80
2023-02-02T16:23:15.664Z,10.10
2023-02-02T16:26:08.364Z,12.00
2023-02-02T16:28:59.638Z,11.40
2023-02-02T16:31:51.285Z,10.50
2023-02-02T16:34:49.061Z,10.70
2023-02-02T16:37:38.981Z,11.10
2023-02-02T16:40:31.007Z,9.90
2023-02-02T16:43:22.547Z,10.80
2023-02-02T16:46:14.345Z,11.00
2023-02-02T16:49:06.033Z,12.80
2023-02-02T16:52:13.249Z,10.60
2023-02-02T16:55:04.797Z,11.70
2023-02-02T16:57:55.495Z,11.20
2023-02-02T17:01:12.400Z,12.90
2023-02-02T17:04:06.714Z,8.80
2023-02-02T17:06:58.785Z,9.50
2023-02-02T17:09:50.491Z,11.50
2023-02-02T17:12:40.949Z,12.50
2023-02-02T17:15:35.569Z,10.30
2023-02-02T17:18:26.521Z,10.40
2023-02-02T17:21:19.481Z,12.30
2023-02-02T17:24:10.591Z,11.10
2023-02-02T17:27:01.330Z,9.10
2023-02-02T17:29:52.387Z,9.80
2023-02-02T17:32:42.628Z,12.70
2023-02-02T17:35:47.496Z,9.70
2023-02-02T17:38:43.428Z,12.50
2023-02-02T17:41:34.794Z,9.20
2023-02-02T17:44:25.115Z,10.60
2023-02-02T17:47:16.227Z,9.90
2023-02-02T17:50:06.896Z,14.40
2023-02-02T17:52:57.143Z,12.40
2023-02-02T17:55:50.040Z,10.10
2023-02-02T17:58:41.109Z,9.50
2023-02-02T18:01:31.482Z,8.80
2023-02-02T18:04:21.835Z,8.70
2023-02-02T18:07:12.736Z,9.20
2023-02-02T18:10:02.703Z,9.80
2023-02-02T18:12:52.858Z,11.40
2023-02-02T18:15:43.563Z,12.90
2023-02-02T18:18:33.514Z,10.10
2023-02-02T18:21:23.840Z,12.60
2023-02-02T18:24:16.470Z,10.10
2023-02-02T18:27:08.243Z,12.10
2023-02-02T18:29:58.838Z,9.40
2023-02-02T18:32:50.166Z,9.30
2023-02-02T18:35:41.875Z,11.50
2023-02-02T18:38:31.696Z,9.20
2023-02-02T18:41:23.070Z,11.60
2023-02-02T18:44:13.503Z,12.40
2023-02-02T18:47:03.824Z,9.50
2023-02-02T18:49:53.938Z,10.10
2023-02-02T18:52:44.540Z,8.20
2023-02-02T18:55:34.693Z,9.90
2023-02-02T18:58:26.455Z,7.80
2023-02-02T19:01:19.086Z,9.70
2023-02-02T19:04:09.473Z,11.20
2023-02-02T19:07:17.208Z,8.80
2023-02-02T19:10:09.991Z,11.60
2023-02-02T19:13:04.719Z,10.30
2023-02-02T19:15:55.281Z,10.90
2023-02-02T19:18:46.400Z,11.40
2023-02-02T19:21:37.049Z,12.30
2023-02-02T19:24:28.576Z,10.30
2023-02-02T19:27:21.690Z,11.30
2023-02-02T19:30:21.223Z,8.20
2023-02-02T19:33:15.816Z,9.50
2023-02-02T19:36:14.179Z,8.70
2023-02-02T19:39:13.728Z,9.80
2023-02-02T19:42:11.141Z,9.00
2023-02-02T19:45:03.483Z,9.70
2023-02-02T19:47:54.923Z,9.60
2023-02-02T19:50:46.412Z,10.80
2023-02-02T19:53:39.816Z,10.50
2023-02-02T19:56:36.276Z,8.80
2023-02-02T19:59:31.905Z,8.50
2023-02-02T20:02:36.649Z,7.70
2023-02-02T20:05:29.148Z,9.00
2023-02-02T20:08:27.855Z,7.70
2023-02-02T20:11:35.713Z,9.40
2023-02-02T20:14:30.546Z,8.20
2023-02-02T20:17:29.403Z,7.30
2023-02-02T20:20:26.675Z,8.70
2023-02-02T20:23:30.638Z,10.60
2023-02-02T20:26:28.829Z,7.70
2023-02-02T20:29:22.536Z,12.40
2023-02-02T20:32:21.970Z,9.10
2023-02-02T20:35:26.034Z,11.00
2023-02-02T20:38:26.090Z,9.00
2023-02-02T20:41:18.912Z,8.40
2023-02-02T20:44:09.860Z,10.00
2023-02-02T20:47:01.076Z,8.90
2023-02-02T20:49:51.750Z,9.30
2023-02-02T20:52:42.197Z,10.30
2023-02-02T20:55:36.236Z,13.00
2023-02-02T20:58:26.763Z,9.20
2023-02-02T21:01:17.111Z,11.00
2023-02-02T21:04:08.406Z,8.60
2023-02-02T21:07:00.420Z,10.30
2023-02-02T21:09:52.132Z,11.50
2023-02-02T21:12:43.051Z,8.70
2023-02-02T21:15:33.142Z,12.10
2023-02-02T21:18:24.431Z,9.80
2023-02-02T21:21:16.124Z,8.90
2023-02-02T21:24:06.688Z,9.10
2023-02-02T21:26:57.938Z,9.30
2023-02-02T21:29:48.076Z,10.80
2023-02-02T21:32:38.747Z,9.70
2023-02-02T21:35:32.376Z,7.30
2023-02-02T21:38:24.120Z,8.80
2023-02-02T21:41:17.985Z,9.40
2023-02-02T21:44:16.611Z,8.00
2023-02-02T21:47:25.868Z,8.40
2023-02-02T21:50:20.414Z,8.10
2023-02-02T21:53:22.494Z,8.00
2023-02-02T21:56:25.864Z,9.90
2023-02-02T21:59:20.599Z,7.10
2023-02-02T22:02:39.250Z,8.40
2023-02-02T22:05:35.788Z,8.70
2023-02-02T22:08:27.678Z,8.90
2023-02-02T22:11:29.871Z,6.20
2023-02-02T22:14:27.054Z,5.80
2023-02-02T22:17:25.046Z,8.10
2023-02-02T22:20:30.677Z,8.50
2023-02-02T22:23:23.227Z,8.30
2023-02-02T22:26:29.465Z,9.10
2023-02-02T22:29:24.904Z,6.20
2023-02-02T22:32:16.043Z,7.90
2023-02-02T22:35:07.449Z,10.00
2023-02-02T22:37:58.532Z,10.00
2023-02-02T22:40:49.281Z,10.50
2023-02-02T22:43:39.583Z,10.60
2023-02-02T22:46:31.037Z,8.40
2023-02-02T22:49:21.395Z,8.90
2023-02-02T22:52:11.406Z,6.60
2023-02-02T22:55:01.958Z,7.60
2023-02-02T22:57:53.005Z,9.20
2023-02-02T23:00:43.280Z,8.00
2023-02-02T23:03:33.853Z,7.40
2023-02-02T23:06:24.025Z,8.60
2023-02-02T23:09:14.659Z,9.20
2023-02-02T23:12:05.191Z,7.90
2023-02-02T23:14:55.744Z,6.00
2023-02-02T23:17:46.549Z,7.20
2023-02-02T23:20:37.710Z,8.80
2023-02-02T23:23:28.600Z,8.30
2023-02-02T23:26:19.371Z,8.20
2023-02-02T23:29:09.977Z,7.70
2023-02-02T23:32:00.640Z,7.00
2023-02-02T23:34:50.894Z,7.30
2023-02-02T23:37:42.289Z,8.50
2023-02-02T23:40:32.881Z,6.60
2023-02-02T23:43:23.739Z,8.60
2023-02-02T23:46:15.027Z,6.10
2023-02-02T23:49:06.762Z,7.30
2023-02-02T23:51:58.277Z,5.50
2023-02-02T23:54:48.888Z,7.40
2023-02-02T23:57:40.325Z,7.00
